createdAt,value
2022-10-30T00:00:35.795Z,87.71
2022-10-30T00:01:35.888Z,88.01
2022-10-30T00:02:35.932Z,88.56
2022-10-30T00:03:35.917Z,88.35
2022-10-30T00:04:35.968Z,88.35
2022-10-30T00:05:36.010Z,88.66
2022-10-30T00:06:36.078Z,88.96
2022-10-30T00:07:36.137Z,89.06
2022-10-30T00:08:36.189Z,88.86
2022-10-30T00:09:36.248Z,88.66
2022-10-30T00:10:36.298Z,88.86
2022-10-30T00:11:36.349Z,88.96
2022-10-30T00:12:36.399Z,88.96
2022-10-30T00:13:36.441Z,89.11
2022-10-30T00:14:36.500Z,89.11
2022-10-30T00:15:36.551Z,89.21
2022-10-30T00:16:36.603Z,89.61
2022-10-30T00:17:36.643Z,89.72
2022-10-30T00:18:36.692Z,89.61
2022-10-30T00:19:36.752Z,89.61
2022-10-30T00:20:36.862Z,89.72
2022-10-30T00:21:36.833Z,89.81
2022-10-30T00:22:36.881Z,89.81
2022-10-30T00:23:36.924Z,89.61
2022-10-30T00:24:36.975Z,89.61
2022-10-30T00:25:37.033Z,89.61
2022-10-30T00:26:37.084Z,89.61
2022-10-30T00:27:37.144Z,89.61
2022-10-30T00:28:37.165Z,89.72
2022-10-30T00:29:37.195Z,89.81
2022-10-30T00:30:37.237Z,89.81
2022-10-30T00:31:37.256Z,89.72
2022-10-30T00:32:37.301Z,89.81
2022-10-30T00:33:37.334Z,89.72
2022-10-30T00:34:37.360Z,90.02
2022-10-30T00:35:37.451Z,90.02
2022-10-30T00:36:37.416Z,89.61
2022-10-30T00:37:37.450Z,89.31
2022-10-30T00:38:37.473Z,89.11
2022-10-30T00:39:37.503Z,88.90
2022-10-30T00:40:37.539Z,88.90
2022-10-30T00:41:37.575Z,88.66
2022-10-30T00:42:37.602Z,88.86
2022-10-30T00:43:37.643Z,88.86
2022-10-30T00:44:37.669Z,89.17
2022-10-30T00:45:37.691Z,88.86
2022-10-30T00:46:37.759Z,88.66
2022-10-30T00:47:37.772Z,88.56
2022-10-30T00:48:37.789Z,88.56
2022-10-30T00:49:37.813Z,88.56
2022-10-30T00:50:37.831Z,88.76
2022-10-30T00:51:37.872Z,88.86
2022-10-30T00:52:37.906Z,88.86
2022-10-30T00:53:37.934Z,88.96
2022-10-30T00:54:37.990Z,88.76
2022-10-30T00:55:38.013Z,88.76
2022-10-30T00:56:38.042Z,88.76
2022-10-30T00:57:38.074Z,88.80
2022-10-30T00:58:38.096Z,88.90
2022-10-30T00:59:38.134Z,89.01
2022-10-30T01:00:38.154Z,89.11
2022-10-30T01:01:38.276Z,89.31
2022-10-30T01:02:38.293Z,89.51
2022-10-30T01:03:38.266Z,89.51
2022-10-30T01:04:38.299Z,89.72
2022-10-30T01:05:38.319Z,89.81
2022-10-30T01:06:38.357Z,89.81
2022-10-30T01:07:38.385Z,89.81
2022-10-30T01:08:38.482Z,89.81
2022-10-30T01:09:38.428Z,89.76
2022-10-30T01:10:38.468Z,89.86
2022-10-30T01:11:38.518Z,89.86
2022-10-30T01:12:38.536Z,89.86
2022-10-30T01:13:38.549Z,89.96
2022-10-30T01:14:38.569Z,89.86
2022-10-30T01:15:38.580Z,89.72
2022-10-30T01:16:38.630Z,89.61
2022-10-30T01:17:38.653Z,89.65
2022-10-30T01:18:38.670Z,89.61
2022-10-30T01:19:38.690Z,89.72
2022-10-30T01:20:38.729Z,89.61
2022-10-30T01:21:38.782Z,89.41
2022-10-30T01:22:38.793Z,89.61
2022-10-30T01:23:38.822Z,89.81
2022-10-30T01:24:38.852Z,89.61
2022-10-30T01:25:38.875Z,89.31
2022-10-30T01:26:38.920Z,89.31
2022-10-30T01:27:38.944Z,89.72
2022-10-30T01:28:38.974Z,89.61
2022-10-30T01:29:38.994Z,89.41
2022-10-30T01:30:39.015Z,89.31
2022-10-30T01:31:39.064Z,89.61
2022-10-30T01:32:39.088Z,90.02
2022-10-30T01:33:39.106Z,90.02
2022-10-30T01:34:39.186Z,89.81
2022-10-30T01:35:39.128Z,89.72
2022-10-30T01:36:39.173Z,90.02
2022-10-30T01:37:39.208Z,89.92
2022-10-30T01:38:39.228Z,90.22
2022-10-30T01:39:39.258Z,90.42
2022-10-30T01:40:39.318Z,90.32
2022-10-30T01:41:39.335Z,90.22
2022-10-30T01:42:39.378Z,90.12
2022-10-30T01:43:39.393Z,90.42
2022-10-30T01:44:39.409Z,90.67
2022-10-30T01:45:39.429Z,90.67
2022-10-30T01:46:39.450Z,90.67
2022-10-30T01:47:39.481Z,90.77
2022-10-30T01:48:39.541Z,90.88
2022-10-30T01:49:39.560Z,90.97
2022-10-30T01:50:39.595Z,91.22
2022-10-30T01:51:39.612Z,91.52
2022-10-30T01:52:39.658Z,91.63
2022-10-30T01:53:39.713Z,91.73
2022-10-30T01:54:39.754Z,91.73
2022-10-30T01:55:39.802Z,91.63
2022-10-30T01:56:39.823Z,91.83
2022-10-30T01:57:39.860Z,91.93
2022-10-30T01:58:39.894Z,91.83
2022-10-30T01:59:39.925Z,91.93
2022-10-30T02:00:39.994Z,92.03
2022-10-30T02:01:40.247Z,92.13
2022-10-30T02:02:40.100Z,92.33
2022-10-30T02:03:39.996Z,92.33
2022-10-30T02:04:40.030Z,92.33
2022-10-30T02:05:40.064Z,92.33
2022-10-30T02:06:40.090Z,92.44
2022-10-30T02:07:40.136Z,92.48
2022-10-30T02:08:40.310Z,92.48
2022-10-30T02:09:40.172Z,92.48
2022-10-30T02:10:40.198Z,92.68
2022-10-30T02:11:40.226Z,92.68
2022-10-30T02:12:40.278Z,92.68
2022-10-30T02:13:40.307Z,92.68
2022-10-30T02:14:40.339Z,92.68
2022-10-30T02:15:40.340Z,92.68
2022-10-30T02:16:40.361Z,92.79
2022-10-30T02:17:40.390Z,92.79
2022-10-30T02:18:40.489Z,93.09
2022-10-30T02:19:40.430Z,93.40
2022-10-30T02:20:40.452Z,93.19
2022-10-30T02:21:40.471Z,93.05
2022-10-30T02:22:40.602Z,93.45
2022-10-30T02:23:40.515Z,93.45
2022-10-30T02:24:40.542Z,93.25
2022-10-30T02:25:40.564Z,93.19
2022-10-30T02:26:40.582Z,93.29
2022-10-30T02:27:40.614Z,93.40
2022-10-30T02:28:40.652Z,93.29
2022-10-30T02:29:40.675Z,93.49
2022-10-30T02:30:40.704Z,93.49
2022-10-30T02:31:40.725Z,93.60
2022-10-30T02:32:40.746Z,93.49
2022-10-30T02:33:40.785Z,93.49
2022-10-30T02:34:40.795Z,93.60
2022-10-30T02:35:40.844Z,93.60
2022-10-30T02:36:40.867Z,93.70
2022-10-30T02:37:40.877Z,93.80
2022-10-30T02:38:40.928Z,93.70
2022-10-30T02:39:40.958Z,93.70
2022-10-30T02:40:40.987Z,93.90
2022-10-30T02:41:41.009Z,93.90
2022-10-30T02:42:41.047Z,93.80
2022-10-30T02:43:41.136Z,93.80
2022-10-30T02:44:41.128Z,93.80
2022-10-30T02:45:41.169Z,93.70
2022-10-30T02:46:41.190Z,93.70
2022-10-30T02:47:41.199Z,93.80
2022-10-30T02:48:41.229Z,93.80
2022-10-30T02:49:41.291Z,93.80
2022-10-30T02:50:41.280Z,93.80
2022-10-30T02:51:41.351Z,93.70
2022-10-30T02:52:41.420Z,93.80
2022-10-30T02:53:41.404Z,94.00
2022-10-30T02:54:41.492Z,94.10
2022-10-30T02:55:41.484Z,94.10
2022-10-30T02:56:41.473Z,94.10
2022-10-30T02:57:41.464Z,94.00
2022-10-30T02:58:41.451Z,93.90
2022-10-30T02:59:41.535Z,94.10
2022-10-30T03:02:07.643Z,94.21
2022-10-30T03:03:07.574Z,93.90
2022-10-30T03:04:07.586Z,93.80
2022-10-30T03:05:07.606Z,93.80
2022-10-30T03:06:07.636Z,93.80
2022-10-30T03:07:07.655Z,93.80
2022-10-30T03:08:07.666Z,94.00
2022-10-30T03:09:07.685Z,94.10
2022-10-30T03:10:07.697Z,94.10
2022-10-30T03:11:07.726Z,93.90
2022-10-30T03:12:07.736Z,94.31
2022-10-30T03:13:07.747Z,94.21
2022-10-30T03:14:07.757Z,94.25
2022-10-30T03:15:07.778Z,94.25
2022-10-30T03:16:07.799Z,94.45
2022-10-30T03:17:07.808Z,94.35
2022-10-30T03:18:07.832Z,94.45
2022-10-30T03:19:08.418Z,94.76
2022-10-30T03:20:07.851Z,94.86
2022-10-30T03:21:07.871Z,94.86
2022-10-30T03:22:07.889Z,94.96
2022-10-30T03:23:07.909Z,94.86
2022-10-30T03:24:07.942Z,94.76
2022-10-30T03:25:07.951Z,94.76
2022-10-30T03:26:07.971Z,94.66
2022-10-30T03:27:07.993Z,95.06
2022-10-30T03:28:08.031Z,95.21
2022-10-30T03:29:08.054Z,95.41
2022-10-30T03:30:08.084Z,95.41
2022-10-30T03:31:08.103Z,95.51
2022-10-30T03:32:08.124Z,95.51
2022-10-30T03:33:08.178Z,95.31
2022-10-30T03:34:08.193Z,95.31
2022-10-30T03:35:08.213Z,95.41
2022-10-30T03:36:08.237Z,95.41
2022-10-30T03:37:08.255Z,95.51
2022-10-30T03:38:08.295Z,95.72
2022-10-30T03:39:08.315Z,95.72
2022-10-30T03:40:08.335Z,95.86
2022-10-30T03:41:08.357Z,96.07
2022-10-30T03:42:08.385Z,96.27
2022-10-30T03:43:08.426Z,96.27
2022-10-30T03:44:08.467Z,96.17
2022-10-30T03:45:08.510Z,96.17
2022-10-30T03:46:08.532Z,96.27
2022-10-30T03:47:08.672Z,96.47
2022-10-30T03:48:08.618Z,96.98
2022-10-30T03:49:08.661Z,97.08
2022-10-30T03:50:08.695Z,97.29
2022-10-30T03:51:08.717Z,97.29
2022-10-30T03:52:08.762Z,97.29
2022-10-30T03:53:08.787Z,97.08
2022-10-30T03:54:08.810Z,96.98
2022-10-30T03:55:08.820Z,96.98
2022-10-30T03:56:08.851Z,97.08
2022-10-30T03:57:08.848Z,97.04
2022-10-30T03:58:08.862Z,96.83
2022-10-30T03:59:08.892Z,96.63
2022-10-30T04:00:08.882Z,96.53
2022-10-30T04:01:08.949Z,96.43
2022-10-30T04:02:09.150Z,96.53
2022-10-30T04:03:08.935Z,96.53
2022-10-30T04:04:08.957Z,96.58
2022-10-30T04:05:08.985Z,96.47
2022-10-30T04:06:09.005Z,96.47
2022-10-30T04:07:09.035Z,96.58
2022-10-30T04:08:09.082Z,96.88
2022-10-30T04:09:09.090Z,96.98
2022-10-30T04:10:09.083Z,96.98
2022-10-30T04:11:09.185Z,96.88
2022-10-30T04:12:09.195Z,96.78
2022-10-30T04:13:09.253Z,96.68
2022-10-30T04:14:09.297Z,96.88
2022-10-30T04:15:09.363Z,96.98
2022-10-30T04:16:09.418Z,97.19
2022-10-30T04:18:09.514Z,97.29
2022-10-30T04:19:09.567Z,97.19
2022-10-30T04:20:09.626Z,96.98
2022-10-30T04:21:09.702Z,97.08
2022-10-30T04:22:09.669Z,97.19
2022-10-30T04:23:09.726Z,96.98
2022-10-30T04:24:09.780Z,96.98
2022-10-30T04:25:09.832Z,97.08
2022-10-30T04:26:09.899Z,97.08
2022-10-30T04:27:09.942Z,97.19
2022-10-30T04:28:09.981Z,97.08
2022-10-30T04:29:10.022Z,97.19
2022-10-30T04:30:10.074Z,97.49
2022-10-30T04:31:10.152Z,97.49
2022-10-30T04:32:10.146Z,97.39
2022-10-30T04:33:10.114Z,97.29
2022-10-30T04:34:10.172Z,97.29
2022-10-30T04:35:10.215Z,97.39
2022-10-30T04:36:10.258Z,97.39
2022-10-30T04:37:10.347Z,97.69
2022-10-30T04:38:10.301Z,97.80
2022-10-30T04:39:10.344Z,97.80
2022-10-30T04:40:10.396Z,97.60
2022-10-30T04:41:10.440Z,97.49
2022-10-30T04:42:10.514Z,97.39
2022-10-30T04:43:10.475Z,97.39
2022-10-30T04:44:10.525Z,97.69
2022-10-30T04:45:14.995Z,97.60
2022-10-30T04:46:10.567Z,97.60
2022-10-30T04:47:10.630Z,97.60
2022-10-30T04:48:10.607Z,97.60
2022-10-30T04:49:10.649Z,97.69
2022-10-30T04:50:10.701Z,97.69
2022-10-30T04:51:10.742Z,97.60
2022-10-30T04:52:10.791Z,97.49
2022-10-30T04:53:10.851Z,97.53
2022-10-30T04:54:10.932Z,97.53
2022-10-30T04:55:10.889Z,97.84
2022-10-30T04:56:10.940Z,97.89
2022-10-30T04:57:10.985Z,97.80
2022-10-30T04:58:11.028Z,97.69
2022-10-30T04:59:11.085Z,97.60
2022-10-30T05:00:11.123Z,97.49
2022-10-30T05:01:11.220Z,97.49
2022-10-30T05:02:11.403Z,97.60
2022-10-30T05:03:11.232Z,97.69
2022-10-30T05:04:11.294Z,97.64
2022-10-30T05:05:11.333Z,97.53
2022-10-30T05:06:11.382Z,97.64
2022-10-30T05:07:11.421Z,97.64
2022-10-30T05:08:11.491Z,97.53
2022-10-30T05:09:11.443Z,97.64
2022-10-30T05:10:11.483Z,97.84
2022-10-30T05:11:11.597Z,98.14
2022-10-30T05:12:11.564Z,98.25
2022-10-30T05:13:11.634Z,98.30
2022-10-30T05:14:11.615Z,98.30
2022-10-30T05:15:11.623Z,98.39
2022-10-30T05:16:11.687Z,98.50
2022-10-30T05:17:11.736Z,98.60
2022-10-30T05:18:11.768Z,98.70
2022-10-30T05:19:11.818Z,98.91
2022-10-30T05:20:14.825Z,98.95
2022-10-30T05:21:11.927Z,99.05
2022-10-30T05:22:11.948Z,99.36
2022-10-30T05:23:11.988Z,99.66
2022-10-30T05:24:12.029Z,99.87
2022-10-30T05:25:12.090Z,99.87
2022-10-30T05:26:12.116Z,99.87
2022-10-30T05:27:12.160Z,99.66
2022-10-30T05:28:12.205Z,99.77
2022-10-30T05:29:12.233Z,99.77
2022-10-30T05:30:12.261Z,99.71
2022-10-30T05:31:12.315Z,99.71
2022-10-30T05:32:15.406Z,99.81
2022-10-30T05:33:12.421Z,99.91
2022-10-30T05:34:12.456Z,99.99
2022-10-30T05:35:12.492Z,99.99
2022-10-30T05:36:12.518Z,99.99
2022-10-30T05:37:12.502Z,99.99
2022-10-30T05:38:12.515Z,99.99
2022-10-30T05:39:12.515Z,99.99
2022-10-30T05:40:12.542Z,99.99
2022-10-30T05:41:12.553Z,99.99
2022-10-30T05:42:13.844Z,99.99
2022-10-30T05:43:12.606Z,99.99
2022-10-30T05:44:12.633Z,99.99
2022-10-30T05:45:12.655Z,99.99
2022-10-30T05:46:12.707Z,99.99
2022-10-30T05:47:12.755Z,99.99
2022-10-30T05:48:12.787Z,99.99
2022-10-30T05:49:12.845Z,99.99
2022-10-30T05:50:12.865Z,99.99
2022-10-30T05:51:12.941Z,99.99
2022-10-30T05:52:12.916Z,99.99
2022-10-30T05:53:12.975Z,99.99
2022-10-30T05:54:13.027Z,99.99
2022-10-30T05:55:13.079Z,99.99
2022-10-30T05:56:13.164Z,99.99
2022-10-30T05:57:13.159Z,99.99
2022-10-30T05:58:13.128Z,99.99
2022-10-30T05:59:13.190Z,99.99
2022-10-30T06:00:13.258Z,99.99
2022-10-30T06:01:13.350Z,99.99
2022-10-30T06:02:13.404Z,99.99
2022-10-30T06:03:13.343Z,99.99
2022-10-30T06:04:13.349Z,99.99
2022-10-30T06:05:13.411Z,99.99
2022-10-30T06:06:13.455Z,99.99
2022-10-30T06:07:13.519Z,99.99
2022-10-30T06:08:13.543Z,99.99
2022-10-30T06:09:13.603Z,99.99
2022-10-30T06:10:13.622Z,99.99
2022-10-30T06:11:13.627Z,99.99
2022-10-30T06:12:13.703Z,99.99
2022-10-30T06:13:13.672Z,99.99
2022-10-30T06:14:13.726Z,99.99
2022-10-30T06:15:13.771Z,99.99
2022-10-30T06:16:13.774Z,99.99
2022-10-30T06:17:13.804Z,99.99
2022-10-30T06:18:13.801Z,99.99
2022-10-30T06:19:17.535Z,99.99
2022-10-30T06:20:13.819Z,99.99
2022-10-30T06:21:13.856Z,99.99
2022-10-30T06:22:13.925Z,99.99
2022-10-30T06:23:13.934Z,99.99
2022-10-30T06:24:13.938Z,99.99
2022-10-30T06:25:14.004Z,99.99
2022-10-30T06:26:14.025Z,99.99
2022-10-30T06:27:14.135Z,99.99
2022-10-30T06:28:14.105Z,99.99
2022-10-30T06:29:14.118Z,99.99
2022-10-30T06:30:14.129Z,99.99
2022-10-30T06:31:14.190Z,99.99
2022-10-30T06:32:14.222Z,99.99
2022-10-30T06:33:14.242Z,99.99
2022-10-30T06:34:14.260Z,99.99
2022-10-30T06:35:14.323Z,99.99
2022-10-30T06:36:14.390Z,99.99
2022-10-30T06:37:14.467Z,99.99
2022-10-30T06:38:14.412Z,99.99
2022-10-30T06:39:14.499Z,99.99
2022-10-30T06:40:14.519Z,99.99
2022-10-30T06:41:14.592Z,99.99
2022-10-30T06:42:14.661Z,99.99
2022-10-30T06:43:14.681Z,99.99
2022-10-30T06:44:14.730Z,99.99
2022-10-30T06:45:14.719Z,99.99
2022-10-30T06:46:14.752Z,99.99
2022-10-30T06:47:14.805Z,99.99
2022-10-30T06:48:14.832Z,99.99
2022-10-30T06:49:14.883Z,99.99
2022-10-30T06:50:14.946Z,99.99
2022-10-30T06:51:15.001Z,99.99
2022-10-30T06:52:15.056Z,99.99
2022-10-30T06:53:15.044Z,99.99
2022-10-30T06:54:15.096Z,99.99
2022-10-30T06:55:15.187Z,99.99
2022-10-30T06:56:15.196Z,99.77
2022-10-30T06:57:15.275Z,99.21
2022-10-30T06:58:15.252Z,99.01
2022-10-30T06:59:15.310Z,98.91
2022-10-30T07:00:15.368Z,98.60
2022-10-30T07:01:15.603Z,98.09
2022-10-30T07:02:15.537Z,97.69
2022-10-30T07:03:15.472Z,97.69
2022-10-30T07:04:15.516Z,97.74
2022-10-30T07:05:15.559Z,97.38
2022-10-30T07:06:15.610Z,97.17
2022-10-30T07:07:15.677Z,97.17
2022-10-30T07:08:15.651Z,97.28
2022-10-30T07:09:15.679Z,97.28
2022-10-30T07:10:15.690Z,97.38
2022-10-30T07:11:15.748Z,97.48
2022-10-30T07:12:15.772Z,97.58
2022-10-30T07:13:15.857Z,97.64
2022-10-30T07:14:15.821Z,97.64
2022-10-30T07:15:15.880Z,97.33
2022-10-30T07:16:15.935Z,97.08
2022-10-30T07:17:16.006Z,96.23
2022-10-30T07:18:16.022Z,95.51
2022-10-30T07:19:16.025Z,94.96
2022-10-30T07:20:16.033Z,94.35
2022-10-30T07:21:16.102Z,93.90
2022-10-30T07:22:16.135Z,93.09
2022-10-30T07:23:16.144Z,92.68
2022-10-30T07:24:16.125Z,92.18
2022-10-30T07:25:16.179Z,91.83
2022-10-30T07:26:16.223Z,91.93
2022-10-30T07:27:16.282Z,91.52
2022-10-30T07:28:16.332Z,91.12
2022-10-30T07:29:16.393Z,91.02
2022-10-30T07:30:16.479Z,91.02
2022-10-30T07:31:24.031Z,91.22
2022-10-30T07:32:16.476Z,91.02
2022-10-30T07:33:16.543Z,91.12
2022-10-30T07:34:16.587Z,91.32
2022-10-30T07:35:16.598Z,91.67
2022-10-30T07:36:16.602Z,91.67
2022-10-30T07:37:16.661Z,91.77
2022-10-30T07:38:16.669Z,91.77
2022-10-30T07:39:16.729Z,91.87
2022-10-30T07:40:16.798Z,91.67
2022-10-30T07:41:16.868Z,91.26
2022-10-30T07:42:16.950Z,91.16
2022-10-30T07:43:16.920Z,91.22
2022-10-30T07:44:17.794Z,91.32
2022-10-30T07:45:17.893Z,89.86
2022-10-30T07:46:17.007Z,89.31
2022-10-30T07:47:17.046Z,88.66
2022-10-30T07:48:17.056Z,87.30
2022-10-30T07:49:17.082Z,85.80
2022-10-30T07:50:17.113Z,84.71
2022-10-30T07:51:17.175Z,82.71
2022-10-30T07:52:17.705Z,81.26
2022-10-30T07:53:17.245Z,79.47
2022-10-30T07:54:17.298Z,78.39
2022-10-30T07:55:17.344Z,77.00
2022-10-30T07:56:17.356Z,74.85
2022-10-30T07:57:17.373Z,74.58
2022-10-30T07:58:17.397Z,73.30
2022-10-30T07:59:17.448Z,70.76
2022-10-30T08:00:17.971Z,70.12
2022-10-30T08:01:17.642Z,69.42
2022-10-30T08:02:17.721Z,69.19
2022-10-30T08:03:17.609Z,69.26
2022-10-30T08:04:17.634Z,67.52
2022-10-30T08:05:17.633Z,67.59
2022-10-30T08:06:20.145Z,67.05
2022-10-30T08:07:17.639Z,65.72
2022-10-30T08:08:17.719Z,64.65
2022-10-30T08:09:17.691Z,65.36
2022-10-30T08:10:17.751Z,65.75
2022-10-30T08:11:17.756Z,65.12
2022-10-30T08:12:17.723Z,65.02
2022-10-30T08:13:17.810Z,64.72
2022-10-30T08:14:17.782Z,65.12
2022-10-30T08:15:17.832Z,64.00
2022-10-30T08:16:17.874Z,64.00
2022-10-30T08:17:17.935Z,63.96
2022-10-30T08:18:17.993Z,63.73
2022-10-30T08:19:17.965Z,63.13
2022-10-30T08:20:18.010Z,62.20
2022-10-30T08:21:18.072Z,62.01
2022-10-30T08:22:18.111Z,61.77
2022-10-30T08:23:18.198Z,61.15
2022-10-30T08:24:18.168Z,61.15
2022-10-30T08:25:18.235Z,61.00
2022-10-30T08:26:18.210Z,61.57
2022-10-30T08:27:18.253Z,60.75
2022-10-30T08:28:18.292Z,61.05
2022-10-30T08:29:18.349Z,60.65
2022-10-30T08:30:18.350Z,60.97
2022-10-30T08:31:18.429Z,62.09
2022-10-30T08:32:18.462Z,65.12
2022-10-30T08:33:18.482Z,66.88
2022-10-30T08:34:18.553Z,67.82
2022-10-30T08:35:20.139Z,69.06
2022-10-30T08:36:18.595Z,68.99
2022-10-30T08:37:18.634Z,70.53
2022-10-30T08:38:18.644Z,71.03
2022-10-30T08:39:19.627Z,71.13
2022-10-30T08:40:18.735Z,70.86
2022-10-30T08:41:18.739Z,71.40
2022-10-30T08:42:18.726Z,72.20
2022-10-30T08:43:18.835Z,72.20
2022-10-30T08:44:18.827Z,72.54
2022-10-30T08:45:18.829Z,72.74
2022-10-30T08:46:18.838Z,72.50
2022-10-30T08:47:18.868Z,72.61
2022-10-30T08:48:18.889Z,72.27
2022-10-30T08:49:18.912Z,71.30
2022-10-30T08:50:19.010Z,69.39
2022-10-30T08:51:19.024Z,66.92
2022-10-30T08:52:18.983Z,65.83
2022-10-30T08:53:19.979Z,64.46
2022-10-30T08:54:19.095Z,63.20
2022-10-30T08:55:19.148Z,61.47
2022-10-30T08:56:19.193Z,61.11
2022-10-30T08:57:19.273Z,60.32
2022-10-30T08:58:19.255Z,59.89
2022-10-30T08:59:21.352Z,59.00
2022-10-30T09:00:19.323Z,58.47
2022-10-30T09:01:19.479Z,58.97
2022-10-30T09:02:19.654Z,57.64
2022-10-30T09:03:19.446Z,56.92
2022-10-30T09:04:19.497Z,56.85
2022-10-30T09:05:19.563Z,56.95
2022-10-30T09:06:19.608Z,57.47
2022-10-30T09:07:19.658Z,58.20
2022-10-30T09:08:19.719Z,58.53
2022-10-30T09:09:19.740Z,59.48
2022-10-30T09:10:19.770Z,60.44
2022-10-30T09:11:19.780Z,61.72
2022-10-30T09:12:19.820Z,63.56
2022-10-30T09:13:19.843Z,64.39
2022-10-30T09:14:19.873Z,65.12
2022-10-30T09:15:19.893Z,64.92
2022-10-30T09:16:20.015Z,65.82
2022-10-30T09:17:19.964Z,65.01
2022-10-30T09:18:20.063Z,64.59
2022-10-30T09:19:20.036Z,63.82
2022-10-30T09:20:20.085Z,61.80
2022-10-30T09:21:20.146Z,59.35
2022-10-30T09:22:20.246Z,57.47
2022-10-30T09:23:20.226Z,55.93
2022-10-30T09:24:20.268Z,54.60
2022-10-30T09:25:20.307Z,53.96
2022-10-30T09:26:20.927Z,52.84
2022-10-30T09:27:22.229Z,53.86
2022-10-30T09:28:20.390Z,53.66
2022-10-30T09:29:20.359Z,53.53
2022-10-30T09:30:20.407Z,53.69
2022-10-30T09:31:20.453Z,55.11
2022-10-30T09:32:20.471Z,58.48
2022-10-30T09:33:20.492Z,59.30
2022-10-30T09:34:20.547Z,60.82
2022-10-30T09:35:20.531Z,61.85
2022-10-30T09:36:22.264Z,62.05
2022-10-30T09:37:20.613Z,61.40
2022-10-30T09:38:20.664Z,60.74
2022-10-30T09:39:20.718Z,57.65
2022-10-30T09:40:20.764Z,58.00
2022-10-30T09:41:20.868Z,56.68
2022-10-30T09:42:20.846Z,55.46
2022-10-30T09:43:20.825Z,54.43
2022-10-30T09:44:20.875Z,53.46
2022-10-30T09:45:29.424Z,53.49
2022-10-30T09:46:20.947Z,53.24
2022-10-30T09:47:23.458Z,54.75
2022-10-30T09:48:20.999Z,55.68
2022-10-30T09:49:21.001Z,56.81
2022-10-30T09:50:21.019Z,57.58
2022-10-30T09:51:21.043Z,58.11
2022-10-30T09:52:21.050Z,58.94
2022-10-30T09:53:21.090Z,59.89
2022-10-30T09:54:21.111Z,59.99
2022-10-30T09:55:21.123Z,60.29
2022-10-30T09:56:21.133Z,60.49
2022-10-30T09:57:21.143Z,61.19
2022-10-30T09:58:21.175Z,60.69
2022-10-30T09:59:21.207Z,61.69
2022-10-30T10:00:21.227Z,60.66
2022-10-30T10:01:21.371Z,59.47
2022-10-30T10:02:21.363Z,59.97
2022-10-30T10:03:21.316Z,59.66
2022-10-30T10:04:23.939Z,60.06
2022-10-30T10:05:21.371Z,60.66
2022-10-30T10:06:21.388Z,60.24
2022-10-30T10:07:21.386Z,60.14
2022-10-30T10:08:21.408Z,59.41
2022-10-30T10:09:21.428Z,59.61
2022-10-30T10:10:21.577Z,60.36
2022-10-30T10:11:21.606Z,61.26
2022-10-30T10:12:21.551Z,60.49
2022-10-30T10:13:21.569Z,60.49
2022-10-30T10:14:21.593Z,61.09
2022-10-30T10:15:21.602Z,61.19
2022-10-30T10:16:21.612Z,61.40
2022-10-30T10:17:21.613Z,61.29
2022-10-30T10:18:21.683Z,61.29
2022-10-30T10:19:21.652Z,60.46
2022-10-30T10:20:21.696Z,59.83
2022-10-30T10:21:21.684Z,58.98
2022-10-30T10:22:21.705Z,56.77
2022-10-30T10:23:21.725Z,54.90
2022-10-30T10:24:21.765Z,53.16
2022-10-30T10:25:21.795Z,52.96
2022-10-30T10:26:21.796Z,52.86
2022-10-30T10:27:21.836Z,51.72
2022-10-30T10:28:21.856Z,51.37
2022-10-30T10:29:21.857Z,50.56
2022-10-30T10:30:21.958Z,49.57
2022-10-30T10:31:21.900Z,49.37
2022-10-30T10:32:21.919Z,48.72
2022-10-30T10:34:21.990Z,50.31
2022-10-30T10:35:22.030Z,51.20
2022-10-30T10:36:22.041Z,51.23
2022-10-30T10:37:22.070Z,52.72
2022-10-30T10:38:22.105Z,52.37
2022-10-30T10:39:22.123Z,50.36
2022-10-30T10:40:22.145Z,50.56
2022-10-30T10:41:22.173Z,49.94
2022-10-30T10:42:22.206Z,49.54
2022-10-30T10:43:22.229Z,50.78
2022-10-30T10:44:22.295Z,51.82
2022-10-30T10:45:22.338Z,52.47
2022-10-30T10:46:22.386Z,53.78
2022-10-30T10:47:22.498Z,54.24
2022-10-30T10:48:22.447Z,54.60
2022-10-30T10:49:22.468Z,53.56
2022-10-30T10:50:22.521Z,53.70
2022-10-30T10:51:22.548Z,52.49
2022-10-30T10:52:22.617Z,52.12
2022-10-30T10:53:22.665Z,53.23
2022-10-30T10:54:22.700Z,53.01
2022-10-30T10:55:22.719Z,52.76
2022-10-30T10:56:22.731Z,51.12
2022-10-30T10:57:22.775Z,51.00
2022-10-30T10:58:22.777Z,50.93
2022-10-30T10:59:22.803Z,50.95
2022-10-30T11:00:22.815Z,51.12
2022-10-30T11:01:22.967Z,51.03
2022-10-30T11:02:23.067Z,52.49
2022-10-30T11:03:22.910Z,53.93
2022-10-30T11:04:22.944Z,54.63
2022-10-30T11:05:23.028Z,55.25
2022-10-30T11:06:23.082Z,55.44
2022-10-30T11:07:23.046Z,55.12
2022-10-30T11:08:23.125Z,55.35
2022-10-30T11:09:23.106Z,55.74
2022-10-30T11:10:23.170Z,55.65
2022-10-30T11:11:23.176Z,55.65
2022-10-30T11:12:23.230Z,56.07
2022-10-30T11:13:23.506Z,56.57
2022-10-30T11:14:23.298Z,56.77
2022-10-30T11:15:23.360Z,56.77
2022-10-30T11:16:24.064Z,57.04
2022-10-30T11:17:23.455Z,57.17
2022-10-30T11:18:23.557Z,57.56
2022-10-30T11:19:23.532Z,56.96
2022-10-30T11:20:23.755Z,56.96
2022-10-30T11:21:23.653Z,56.99
2022-10-30T11:22:23.748Z,58.22
2022-10-30T11:23:23.725Z,58.31
2022-10-30T11:24:23.798Z,58.54
2022-10-30T11:25:26.935Z,58.01
2022-10-30T11:26:23.835Z,57.92
2022-10-30T11:27:23.868Z,57.79
2022-10-30T11:28:23.862Z,56.04
2022-10-30T11:29:23.865Z,55.52
2022-10-30T11:30:23.868Z,55.49
2022-10-30T11:31:23.920Z,55.07
2022-10-30T11:32:23.999Z,54.28
2022-10-30T11:33:24.059Z,54.08
2022-10-30T11:34:24.072Z,53.88
2022-10-30T11:35:24.051Z,54.40
2022-10-30T11:36:24.160Z,55.32
2022-10-30T11:37:24.131Z,55.52
2022-10-30T11:38:24.163Z,55.02
2022-10-30T11:39:24.194Z,55.32
2022-10-30T11:40:25.293Z,55.05
2022-10-30T11:41:24.255Z,55.74
2022-10-30T11:42:24.333Z,55.35
2022-10-30T11:43:24.344Z,56.17
2022-10-30T11:44:24.351Z,56.40
2022-10-30T11:45:24.387Z,57.45
2022-10-30T11:46:24.348Z,57.52
2022-10-30T11:47:24.461Z,57.42
2022-10-30T11:48:24.448Z,57.32
2022-10-30T11:49:24.499Z,56.67
2022-10-30T11:50:24.492Z,55.65
2022-10-30T11:51:24.519Z,54.82
2022-10-30T11:52:24.537Z,54.75
2022-10-30T11:53:24.578Z,54.10
2022-10-30T11:54:24.629Z,53.08
2022-10-30T11:55:24.703Z,54.21
2022-10-30T11:56:24.657Z,53.70
2022-10-30T11:57:24.650Z,54.13
2022-10-30T11:58:24.720Z,54.10
2022-10-30T11:59:24.763Z,53.91
2022-10-30T12:00:24.829Z,53.80
2022-10-30T12:01:24.980Z,54.53
2022-10-30T12:02:24.990Z,54.21
2022-10-30T12:03:24.913Z,54.08
2022-10-30T12:04:24.918Z,53.78
2022-10-30T12:05:24.975Z,54.70
2022-10-30T12:06:24.993Z,54.93
2022-10-30T12:07:25.046Z,55.42
2022-10-30T12:08:25.093Z,55.10
2022-10-30T12:09:25.136Z,54.85
2022-10-30T12:10:25.177Z,53.90
2022-10-30T12:11:25.230Z,52.49
2022-10-30T12:12:25.235Z,52.24
2022-10-30T12:13:25.298Z,52.39
2022-10-30T12:14:25.278Z,54.22
2022-10-30T12:15:25.249Z,53.20
2022-10-30T12:16:25.336Z,53.03
2022-10-30T12:17:25.298Z,52.71
2022-10-30T12:18:25.465Z,53.16
2022-10-30T12:19:25.410Z,53.85
2022-10-30T12:20:25.430Z,54.02
2022-10-30T12:21:25.461Z,53.41
2022-10-30T12:22:25.493Z,53.56
2022-10-30T12:23:25.512Z,53.96
2022-10-30T12:24:25.512Z,54.47
2022-10-30T12:25:25.520Z,54.57
2022-10-30T12:26:25.542Z,54.85
2022-10-30T12:27:25.688Z,54.80
2022-10-30T12:28:25.634Z,55.29
2022-10-30T12:29:36.516Z,55.82
2022-10-30T12:30:25.663Z,55.91
2022-10-30T12:31:25.728Z,56.44
2022-10-30T12:32:25.745Z,56.87
2022-10-30T12:33:25.785Z,57.36
2022-10-30T12:34:25.819Z,57.59
2022-10-30T12:35:25.859Z,58.11
2022-10-30T12:36:25.907Z,58.51
2022-10-30T12:37:25.960Z,58.61
2022-10-30T12:38:25.998Z,58.34
2022-10-30T12:39:26.041Z,58.41
2022-10-30T12:40:26.078Z,58.11
2022-10-30T12:41:26.140Z,58.51
2022-10-30T12:42:26.172Z,58.44
2022-10-30T12:43:26.211Z,58.51
2022-10-30T12:44:26.271Z,58.18
2022-10-30T12:45:26.311Z,58.51
2022-10-30T12:46:26.347Z,58.48
2022-10-30T12:47:26.362Z,57.96
2022-10-30T12:48:26.394Z,56.91
2022-10-30T12:49:26.434Z,56.64
2022-10-30T12:50:26.483Z,57.24
2022-10-30T12:51:26.515Z,57.66
2022-10-30T12:52:26.565Z,58.16
2022-10-30T12:53:26.606Z,57.93
2022-10-30T12:54:26.636Z,57.01
2022-10-30T12:55:26.714Z,56.49
2022-10-30T12:56:26.777Z,55.89